createdAt,value
2018-03-25T00:01:34.711Z,46.50
2018-03-25T00:04:02.334Z,42.27
2018-03-25T00:06:29.908Z,41.67
2018-03-25T00:08:57.484Z,45.83
2018-03-25T00:11:25.115Z,40.40
2018-03-25T00:13:52.677Z,50.97
2018-03-25T00:16:20.250Z,49.57
2018-03-25T00:18:47.880Z,52.60
2018-03-25T00:21:15.502Z,49.30
2018-03-25T00:23:43.061Z,50.77
2018-03-25T00:26:10.622Z,52.50
2018-03-25T00:28:38.199Z,62.00
2018-03-25T00:31:05.780Z,65.97
2018-03-25T00:33:33.420Z,60.73
2018-03-25T00:36:00.983Z,62.03
2018-03-25T00:38:28.666Z,70.87
2018-03-25T00:40:56.282Z,69.87
2018-03-25T00:43:23.850Z,69.00
2018-03-25T00:45:51.487Z,62.17
2018-03-25T00:48:19.050Z,62.40
2018-03-25T00:50:46.628Z,47.00
2018-03-25T00:53:14.246Z,52.00
2018-03-25T00:55:41.926Z,54.40
2018-03-25T00:58:09.486Z,56.13
2018-03-25T01:00:37.108Z,50.47
2018-03-25T01:03:04.735Z,52.27
2018-03-25T01:05:32.293Z,54.73
2018-03-25T01:07:59.863Z,54.47
2018-03-25T01:10:27.483Z,59.07
2018-03-25T01:12:55.171Z,51.00
2018-03-25T01:15:22.801Z,46.53
2018-03-25T01:17:50.424Z,44.80
2018-03-25T01:20:17.995Z,47.47
2018-03-25T01:22:45.557Z,46.30
2018-03-25T01:25:13.187Z,48.70
2018-03-25T01:27:40.761Z,47.90
2018-03-25T01:30:08.437Z,46.40
2018-03-25T01:32:36.108Z,56.80
2018-03-25T01:35:03.657Z,49.70
2018-03-25T01:37:31.227Z,61.33
2018-03-25T01:39:58.786Z,54.13
2018-03-25T01:42:26.354Z,52.93
2018-03-25T01:44:53.914Z,57.63
2018-03-25T01:47:21.586Z,51.90
2018-03-25T01:49:49.210Z,44.83
2018-03-25T01:52:16.772Z,55.93
2018-03-25T01:54:44.403Z,58.17
2018-03-25T01:57:12.304Z,67.20
2018-03-25T01:59:39.872Z,55.33
2018-03-25T02:02:07.448Z,54.33
2018-03-25T02:04:35.075Z,53.40
2018-03-25T02:07:02.637Z,52.20
2018-03-25T02:09:30.194Z,52.57
2018-03-25T02:11:57.765Z,51.77
2018-03-25T02:14:25.330Z,49.20
2018-03-25T02:16:52.916Z,51.07
2018-03-25T02:19:20.510Z,50.17
2018-03-25T02:21:48.118Z,51.03
2018-03-25T02:24:15.674Z,50.97
2018-03-25T02:26:43.295Z,47.80
2018-03-25T02:29:10.866Z,47.17
2018-03-25T02:31:38.427Z,51.63
2018-03-25T02:34:06.064Z,55.43
2018-03-25T02:36:33.622Z,51.00
2018-03-25T02:39:01.312Z,58.80
2018-03-25T02:41:28.866Z,64.10
2018-03-25T02:43:56.427Z,68.67
2018-03-25T02:46:24.013Z,86.60
2018-03-25T02:48:51.573Z,70.93
2018-03-25T02:51:19.203Z,74.10
2018-03-25T02:53:46.826Z,72.03
2018-03-25T02:56:14.496Z,77.47
2018-03-25T02:58:42.125Z,70.63
2018-03-25T03:01:09.747Z,70.33
2018-03-25T03:03:37.445Z,66.07
2018-03-25T03:06:05.065Z,68.07
2018-03-25T03:08:32.707Z,70.83
2018-03-25T03:11:00.275Z,71.80
2018-03-25T03:13:27.895Z,71.93
2018-03-25T03:15:55.458Z,74.50
2018-03-25T03:18:23.013Z,70.40
2018-03-25T03:20:50.574Z,97.93
2018-03-25T03:23:18.135Z,78.93
2018-03-25T03:25:45.723Z,68.67
2018-03-25T03:28:13.346Z,61.13
2018-03-25T03:30:40.963Z,67.90
2018-03-25T03:33:08.526Z,74.07
2018-03-25T03:35:36.147Z,61.97
2018-03-25T03:38:03.789Z,59.07
2018-03-25T03:40:31.349Z,70.27
2018-03-25T03:42:58.914Z,71.90
2018-03-25T03:45:26.475Z,59.07
2018-03-25T03:47:54.085Z,65.17
2018-03-25T03:50:21.646Z,60.30
2018-03-25T03:52:49.211Z,61.77
2018-03-25T03:55:16.842Z,60.10
2018-03-25T03:57:44.406Z,62.97
2018-03-25T04:00:11.978Z,71.03
2018-03-25T04:02:39.538Z,66.17
2018-03-25T04:05:07.154Z,76.33
2018-03-25T04:07:34.715Z,83.03
2018-03-25T04:10:02.278Z,80.13
2018-03-25T04:12:29.921Z,87.17
2018-03-25T04:14:57.550Z,86.70
2018-03-25T04:17:25.122Z,78.33
2018-03-25T04:19:52.719Z,69.23
2018-03-25T04:22:20.392Z,64.97
2018-03-25T04:24:47.965Z,64.63
2018-03-25T04:27:15.522Z,66.23
2018-03-25T04:29:43.104Z,62.37
2018-03-25T04:32:10.675Z,58.67
2018-03-25T04:34:38.303Z,71.53
2018-03-25T04:37:05.936Z,67.63
2018-03-25T04:39:33.562Z,57.13
2018-03-25T04:42:01.123Z,64.30
2018-03-25T04:44:28.742Z,74.17
2018-03-25T04:46:56.324Z,62.50
2018-03-25T04:49:23.947Z,59.50
2018-03-25T04:51:51.628Z,60.47
2018-03-25T04:54:19.191Z,69.23
2018-03-25T04:56:46.757Z,65.27
2018-03-25T04:59:14.322Z,76.43
2018-03-25T05:01:41.877Z,70.90
2018-03-25T05:04:09.497Z,81.23
2018-03-25T05:06:37.099Z,65.23
2018-03-25T05:09:04.743Z,56.13
2018-03-25T05:11:32.309Z,52.23
2018-03-25T05:13:59.870Z,58.83
2018-03-25T05:16:27.482Z,63.87
2018-03-25T05:18:55.038Z,54.70
2018-03-25T05:21:22.674Z,61.00
2018-03-25T05:23:50.243Z,53.53
2018-03-25T05:26:17.868Z,60.97
2018-03-25T05:28:45.442Z,47.47
2018-03-25T05:31:13.013Z,59.53
2018-03-25T05:33:40.709Z,51.07
2018-03-25T05:36:08.330Z,57.17
2018-03-25T05:38:35.893Z,57.70
2018-03-25T05:41:03.465Z,38.57
2018-03-25T05:43:31.027Z,41.43
2018-03-25T05:45:58.710Z,50.27
2018-03-25T05:48:26.271Z,56.37
2018-03-25T05:50:53.833Z,52.97
2018-03-25T05:53:21.471Z,53.33
2018-03-25T05:55:49.030Z,56.80
2018-03-25T05:58:16.707Z,59.20
2018-03-25T06:00:44.266Z,53.13
2018-03-25T06:03:11.826Z,49.83
2018-03-25T06:05:39.394Z,41.33
2018-03-25T06:08:06.965Z,44.87
2018-03-25T06:10:34.534Z,37.73
2018-03-25T06:13:02.155Z,52.73
2018-03-25T06:15:29.844Z,75.00
2018-03-25T06:17:57.407Z,51.60
2018-03-25T06:20:24.967Z,45.00
2018-03-25T06:22:52.533Z,47.17
2018-03-25T06:25:20.102Z,47.30
2018-03-25T06:27:47.735Z,46.23
2018-03-25T06:30:15.303Z,44.53
2018-03-25T06:32:42.875Z,52.53
2018-03-25T06:35:10.435Z,44.33
2018-03-25T06:37:38.047Z,47.87
2018-03-25T06:40:05.605Z,50.17
2018-03-25T06:42:33.197Z,47.40
2018-03-25T06:45:00.778Z,44.37
2018-03-25T06:47:28.404Z,47.47
2018-03-25T06:49:55.970Z,42.27
2018-03-25T06:52:23.552Z,45.43
2018-03-25T06:54:51.182Z,40.60
2018-03-25T06:57:18.806Z,39.87
2018-03-25T06:59:46.439Z,45.10
2018-03-25T07:02:14.072Z,41.60
2018-03-25T07:04:41.705Z,48.00
2018-03-25T07:07:09.267Z,42.30
2018-03-25T07:09:36.845Z,39.53
2018-03-25T07:12:04.417Z,52.97
2018-03-25T07:14:32.148Z,41.40
2018-03-25T07:16:59.714Z,40.90
2018-03-25T07:19:27.286Z,44.47
2018-03-25T07:21:54.864Z,69.07
2018-03-25T07:24:22.426Z,42.87
2018-03-25T07:26:50.119Z,40.93
2018-03-25T07:29:17.679Z,48.60
2018-03-25T07:31:45.242Z,47.40
2018-03-25T07:34:12.830Z,39.77
2018-03-25T07:36:40.459Z,41.07
2018-03-25T07:39:08.114Z,48.07
2018-03-25T07:41:35.736Z,43.03
2018-03-25T07:44:03.393Z,45.13
2018-03-25T07:46:31.020Z,38.97
2018-03-25T07:48:58.655Z,42.47
2018-03-25T07:51:26.261Z,37.30
2018-03-25T07:53:53.829Z,35.30
2018-03-25T07:56:21.403Z,34.87
2018-03-25T07:58:48.969Z,26.93
2018-03-25T08:01:16.548Z,29.50
2018-03-25T08:03:44.114Z,35.00
2018-03-25T08:06:11.750Z,33.43
2018-03-25T08:08:39.338Z,39.73
2018-03-25T08:11:06.898Z,37.87
2018-03-25T08:13:34.476Z,38.43
2018-03-25T08:16:02.065Z,32.17
2018-03-25T08:18:29.654Z,28.20
2018-03-25T08:20:57.236Z,33.10
2018-03-25T08:23:24.858Z,32.90
2018-03-25T08:25:52.426Z,34.13
2018-03-25T08:28:20.066Z,37.73
2018-03-25T08:30:47.639Z,34.50
2018-03-25T08:33:15.211Z,35.90
2018-03-25T08:35:42.786Z,35.17
2018-03-25T08:38:10.354Z,38.70
2018-03-25T08:40:37.973Z,41.47
2018-03-25T08:43:05.599Z,38.78
2018-03-25T08:45:33.166Z,34.87
2018-03-25T08:48:00.814Z,39.30
2018-03-25T08:50:28.439Z,32.00
2018-03-25T08:52:56.074Z,37.37
2018-03-25T08:55:23.648Z,44.40
2018-03-25T08:57:51.310Z,34.27
2018-03-25T09:00:18.975Z,35.43
2018-03-25T09:02:46.610Z,37.13
2018-03-25T09:05:14.250Z,40.50
2018-03-25T09:07:41.875Z,40.60
2018-03-25T09:10:09.511Z,41.83
2018-03-25T09:12:37.090Z,37.30
2018-03-25T09:15:04.729Z,37.37
2018-03-25T09:17:32.303Z,38.20
2018-03-25T09:19:59.879Z,39.50
2018-03-25T09:22:27.454Z,34.20
2018-03-25T09:24:55.083Z,42.17
2018-03-25T09:27:22.750Z,26.87
2018-03-25T09:29:50.377Z,32.20
2018-03-25T09:32:17.946Z,43.57
2018-03-25T09:34:45.586Z,33.30
2018-03-25T09:37:13.245Z,35.57
2018-03-25T09:39:40.888Z,29.40
2018-03-25T09:42:08.456Z,32.07
2018-03-25T09:44:36.112Z,32.42
2018-03-25T09:47:03.693Z,31.30
2018-03-25T09:49:31.274Z,30.83
2018-03-25T09:51:58.932Z,29.50
2018-03-25T09:54:26.517Z,29.63
2018-03-25T09:56:54.117Z,29.40
2018-03-25T09:59:21.676Z,31.47
2018-03-25T10:01:54.879Z,35.88
2018-03-25T10:04:22.463Z,35.83
2018-03-25T10:06:50.041Z,30.77
2018-03-25T10:09:17.690Z,29.27
2018-03-25T10:11:45.262Z,25.90
2018-03-25T10:14:12.858Z,36.40
2018-03-25T10:26:24.598Z,37.43
2018-03-25T10:32:26.043Z,41.50
2018-03-25T10:34:53.723Z,33.30
2018-03-25T10:37:21.336Z,34.17
2018-03-25T10:39:48.909Z,32.93
2018-03-25T10:42:16.504Z,34.77
2018-03-25T10:44:44.138Z,30.70
2018-03-25T10:47:11.731Z,29.67
2018-03-25T10:53:15.247Z,38.65
2018-03-25T10:56:42.920Z,35.65
2018-03-25T10:59:10.582Z,40.03
2018-03-25T11:01:38.154Z,31.20
2018-03-25T11:04:05.857Z,33.50
2018-03-25T11:06:33.605Z,40.37
2018-03-25T11:09:01.239Z,42.83
2018-03-25T11:11:28.824Z,32.97
2018-03-25T11:13:56.395Z,36.87
2018-03-25T11:16:23.970Z,36.17
2018-03-25T11:18:51.556Z,33.03
2018-03-25T11:21:19.259Z,33.07
2018-03-25T11:23:46.872Z,36.00
2018-03-25T11:26:15.263Z,33.53
2018-03-25T11:28:42.861Z,32.70
2018-03-25T11:31:10.495Z,42.83
2018-03-25T11:33:38.068Z,32.13
2018-03-25T11:36:05.629Z,30.87
2018-03-25T11:38:33.875Z,40.27
2018-03-25T11:41:01.501Z,37.30
2018-03-25T11:43:29.065Z,28.63
2018-03-25T11:45:56.656Z,34.73
2018-03-25T11:48:24.227Z,32.77
2018-03-25T11:50:51.857Z,35.07
2018-03-25T11:53:19.437Z,39.00
2018-03-25T11:55:47.058Z,28.70
2018-03-25T11:58:14.678Z,36.07
2018-03-25T12:00:42.240Z,28.60
2018-03-25T12:03:09.806Z,31.23
2018-03-25T12:05:37.366Z,32.50
2018-03-25T12:08:05.008Z,32.10
2018-03-25T12:10:32.578Z,38.93
2018-03-25T12:13:00.183Z,34.90
2018-03-25T12:15:27.759Z,36.73
2018-03-25T12:17:55.388Z,34.17
2018-03-25T12:20:22.953Z,31.97
2018-03-25T12:22:50.586Z,31.47
2018-03-25T12:25:18.165Z,35.10
2018-03-25T12:27:45.741Z,46.00
2018-03-25T12:30:13.378Z,44.73
2018-03-25T12:32:41.714Z,39.93
2018-03-25T12:35:09.287Z,49.30
2018-03-25T12:37:36.919Z,60.90
2018-03-25T12:40:04.608Z,46.90
2018-03-25T12:42:33.818Z,34.23
2018-03-25T12:45:01.407Z,35.63
2018-03-25T12:47:28.981Z,39.07
2018-03-25T12:49:56.657Z,34.43
2018-03-25T12:52:24.238Z,45.13
2018-03-25T12:54:52.457Z,47.17
2018-03-25T12:57:20.031Z,37.80
2018-03-25T12:59:47.599Z,33.07
2018-03-25T13:02:15.283Z,49.93
2018-03-25T13:04:43.377Z,29.13
2018-03-25T13:07:10.940Z,68.33
2018-03-25T13:09:38.519Z,155.07
2018-03-25T13:12:06.144Z,50.30
2018-03-25T13:14:33.738Z,113.43
2018-03-25T13:17:01.321Z,55.77
2018-03-25T13:19:28.919Z,37.80
2018-03-25T13:21:57.468Z,44.63
2018-03-25T13:24:25.112Z,40.80
2018-03-25T13:26:52.678Z,46.00
2018-03-25T13:29:20.249Z,54.83
2018-03-25T13:31:47.828Z,47.37
2018-03-25T13:34:15.399Z,60.60
2018-03-25T13:36:43.041Z,81.27
2018-03-25T13:39:10.625Z,71.60
2018-03-25T13:41:38.250Z,66.20
2018-03-25T13:44:05.884Z,42.23
2018-03-25T13:46:33.583Z,48.53
2018-03-25T13:49:01.160Z,157.60
2018-03-25T13:51:28.747Z,82.10
2018-03-25T13:53:56.413Z,66.33
2018-03-25T13:56:23.978Z,57.30
2018-03-25T13:58:51.633Z,68.30
2018-03-25T14:01:19.203Z,75.70
2018-03-25T14:03:46.781Z,85.87
2018-03-25T14:06:14.399Z,83.20
2018-03-25T14:08:42.039Z,116.83
2018-03-25T14:11:10.763Z,77.00
2018-03-25T14:13:38.330Z,72.43
2018-03-25T14:16:05.906Z,81.83
2018-03-25T14:18:33.542Z,69.13
2018-03-25T14:21:01.109Z,66.47
2018-03-25T14:23:28.671Z,56.90
2018-03-25T14:25:56.243Z,69.60
2018-03-25T14:28:23.872Z,66.60
2018-03-25T14:30:51.560Z,63.43
2018-03-25T14:33:19.191Z,80.90
2018-03-25T14:35:46.767Z,73.30
2018-03-25T14:38:14.583Z,70.87
2018-03-25T14:40:42.155Z,72.17
2018-03-25T14:43:09.787Z,73.50
2018-03-25T14:45:37.368Z,84.83
2018-03-25T14:48:04.942Z,89.90
2018-03-25T14:50:32.567Z,84.73
2018-03-25T14:53:00.183Z,77.93
2018-03-25T14:55:27.807Z,85.37
2018-03-25T14:57:55.392Z,84.77
2018-03-25T15:00:23.039Z,87.73
2018-03-25T15:02:51.387Z,99.37
2018-03-25T15:05:18.967Z,122.43
2018-03-25T15:07:46.535Z,78.80
2018-03-25T15:10:14.106Z,72.73
2018-03-25T15:12:41.694Z,134.93
2018-03-25T15:15:09.274Z,80.97
2018-03-25T15:17:36.856Z,79.60
2018-03-25T15:20:04.534Z,103.13
2018-03-25T15:22:32.113Z,93.63
2018-03-25T15:24:59.760Z,106.40
2018-03-25T15:27:27.398Z,177.10
2018-03-25T15:29:54.966Z,115.83
2018-03-25T15:32:22.632Z,96.07
2018-03-25T15:34:50.260Z,124.53
2018-03-25T15:37:17.966Z,108.90
2018-03-25T15:39:45.604Z,108.60
2018-03-25T15:42:13.216Z,97.03
2018-03-25T15:44:41.365Z,104.00
2018-03-25T15:47:08.934Z,105.73
2018-03-25T15:49:36.551Z,154.13
2018-03-25T15:52:04.186Z,221.57
2018-03-25T15:54:31.799Z,104.43
2018-03-25T15:56:59.452Z,100.07
2018-03-25T15:59:27.021Z,125.13
2018-03-25T16:01:54.654Z,135.90
2018-03-25T16:04:22.233Z,136.37
2018-03-25T16:06:50.346Z,147.00
2018-03-25T16:09:17.932Z,141.17
2018-03-25T16:11:45.507Z,141.30
2018-03-25T16:14:13.080Z,149.83
2018-03-25T16:16:40.770Z,144.07
2018-03-25T16:19:08.353Z,130.20
2018-03-25T16:21:35.924Z,140.53
2018-03-25T16:24:03.503Z,147.83
2018-03-25T16:26:31.140Z,126.73
2018-03-25T16:28:58.772Z,119.60
2018-03-25T16:31:26.343Z,147.47
2018-03-25T16:33:53.941Z,136.53
2018-03-25T16:36:21.574Z,137.93
2018-03-25T16:38:49.242Z,135.23
2018-03-25T16:41:16.878Z,126.70
2018-03-25T16:43:44.462Z,144.03
2018-03-25T16:46:12.109Z,180.50
2018-03-25T16:48:39.703Z,141.10
2018-03-25T16:51:07.446Z,147.73
2018-03-25T16:53:35.252Z,160.33
2018-03-25T16:56:02.827Z,165.13
2018-03-25T16:58:30.492Z,137.47
2018-03-25T17:00:58.125Z,138.33
2018-03-25T17:03:25.709Z,127.70
2018-03-25T17:05:53.339Z,126.40
2018-03-25T17:08:20.931Z,129.63
2018-03-25T17:10:48.504Z,113.13
2018-03-25T17:13:16.145Z,123.97
2018-03-25T17:15:43.717Z,124.73
2018-03-25T17:18:11.335Z,121.80
2018-03-25T17:20:38.968Z,134.37
2018-03-25T17:23:06.615Z,142.67
2018-03-25T17:25:34.246Z,142.77
2018-03-25T17:28:01.816Z,153.27
2018-03-25T17:30:29.400Z,181.47
2018-03-25T17:32:56.971Z,193.23
2018-03-25T17:35:24.655Z,160.37
2018-03-25T17:37:52.241Z,141.40
2018-03-25T17:40:19.816Z,166.10
2018-03-25T17:42:47.452Z,171.73
2018-03-25T17:45:15.018Z,199.37
2018-03-25T17:47:42.601Z,183.67
2018-03-25T17:50:10.239Z,216.77
2018-03-25T17:52:37.852Z,155.63
2018-03-25T17:55:05.488Z,170.33
2018-03-25T17:57:33.068Z,221.03
2018-03-25T18:00:00.646Z,164.03
2018-03-25T18:02:28.220Z,173.20
2018-03-25T18:04:55.808Z,163.40
2018-03-25T18:07:23.369Z,172.30
2018-03-25T18:09:51.008Z,173.47
2018-03-25T18:12:18.583Z,165.80
2018-03-25T18:14:46.271Z,157.10
2018-03-25T18:17:33.465Z,147.77
2018-03-25T18:19:41.542Z,131.00
2018-03-25T18:22:09.127Z,142.70
2018-03-25T18:24:37.402Z,131.87
2018-03-25T18:27:05.035Z,136.03
2018-03-25T18:29:32.615Z,127.10
2018-03-25T18:32:00.235Z,145.17
2018-03-25T18:34:27.863Z,148.93
2018-03-25T18:36:55.435Z,163.50
2018-03-25T18:39:23.083Z,156.57
2018-03-25T18:41:50.712Z,143.90
2018-03-25T18:44:18.291Z,143.00
2018-03-25T18:46:45.880Z,161.97
2018-03-25T18:49:13.487Z,141.23
2018-03-25T18:51:41.090Z,157.63
2018-03-25T18:54:09.320Z,169.27
2018-03-25T18:56:36.951Z,168.77
2018-03-25T18:59:04.530Z,150.80
2018-03-25T19:01:32.131Z,164.40
2018-03-25T19:03:59.700Z,168.30
2018-03-25T19:06:27.304Z,143.83
2018-03-25T19:08:54.878Z,152.43
2018-03-25T19:11:22.520Z,136.17
2018-03-25T19:13:50.106Z,134.80
2018-03-25T19:16:17.812Z,119.27
2018-03-25T19:18:45.439Z,129.77
2018-03-25T19:21:13.075Z,134.63
2018-03-25T19:23:40.654Z,148.57
2018-03-25T19:26:08.284Z,128.77
2018-03-25T19:28:35.872Z,141.30
2018-03-25T19:31:03.523Z,148.93
2018-03-25T19:33:31.171Z,142.77
2018-03-25T19:35:58.824Z,135.33
2018-03-25T19:38:26.446Z,143.27
2018-03-25T19:40:54.017Z,126.93
2018-03-25T19:43:21.660Z,151.43
2018-03-25T19:45:49.253Z,121.10
2018-03-25T19:48:16.816Z,127.33
2018-03-25T19:50:44.416Z,130.80
2018-03-25T19:53:12.057Z,121.43
2018-03-25T19:55:39.714Z,126.63
2018-03-25T19:58:07.281Z,127.13
2018-03-25T20:00:34.902Z,116.63
2018-03-25T20:03:02.506Z,102.27
2018-03-25T20:05:30.135Z,99.40
2018-03-25T20:07:57.842Z,94.90
2018-03-25T20:10:25.441Z,108.17
2018-03-25T20:12:53.031Z,92.47
2018-03-25T20:15:20.653Z,87.13
2018-03-25T20:17:48.237Z,85.23
2018-03-25T20:20:15.872Z,93.23
2018-03-25T20:22:43.562Z,90.27
2018-03-25T20:25:11.129Z,95.10
2018-03-25T20:27:38.694Z,80.50
2018-03-25T20:30:06.266Z,84.30
2018-03-25T20:32:33.856Z,92.00
2018-03-25T20:35:01.505Z,99.00
2018-03-25T20:37:29.088Z,120.30
2018-03-25T20:39:56.679Z,101.10
2018-03-25T20:42:24.351Z,92.80
2018-03-25T20:44:52.031Z,94.03
2018-03-25T20:47:19.595Z,109.00
2018-03-25T20:49:47.167Z,110.23
2018-03-25T20:52:14.738Z,84.50
2018-03-25T20:54:42.367Z,100.67
2018-03-25T20:57:09.944Z,122.63
2018-03-25T20:59:37.584Z,122.23
2018-03-25T21:02:05.238Z,164.13
2018-03-25T21:04:32.864Z,113.87
2018-03-25T21:07:00.494Z,96.27
2018-03-25T21:09:28.065Z,79.53
2018-03-25T21:11:55.722Z,68.77
2018-03-25T21:14:23.359Z,85.20
2018-03-25T21:16:50.979Z,83.83
2018-03-25T21:19:18.541Z,67.43
2018-03-25T21:21:46.103Z,85.40
2018-03-25T21:24:13.792Z,99.77
2018-03-25T21:26:41.415Z,97.13
2018-03-25T21:29:09.090Z,112.47
2018-03-25T21:31:36.774Z,116.30
2018-03-25T21:34:04.374Z,103.37
2018-03-25T21:36:31.950Z,96.47
2018-03-25T21:38:59.566Z,76.50
2018-03-25T21:41:27.212Z,66.27
2018-03-25T21:43:54.774Z,64.50
2018-03-25T21:46:22.342Z,108.00
2018-03-25T21:48:49.918Z,102.63
2018-03-25T21:51:17.486Z,87.47
2018-03-25T21:53:45.050Z,82.83
2018-03-25T21:56:12.618Z,86.13
2018-03-25T21:58:40.201Z,96.90
2018-03-25T22:01:07.803Z,90.07
2018-03-25T22:03:35.408Z,93.33
2018-03-25T22:06:03.035Z,88.97
2018-03-25T22:08:30.599Z,102.13
2018-03-25T22:10:58.240Z,125.97
2018-03-25T22:13:25.868Z,164.83
2018-03-25T22:15:53.438Z,142.80
2018-03-25T22:21:20.842Z,119.57
2018-03-25T22:23:48.470Z,119.17
2018-03-25T22:26:16.056Z,124.63
2018-03-25T22:28:43.626Z,124.40
2018-03-25T22:31:11.256Z,147.87
2018-03-25T22:33:38.898Z,124.00
2018-03-25T22:36:06.471Z,122.33
2018-03-25T22:38:34.128Z,89.40
2018-03-25T22:41:01.699Z,66.57
2018-03-25T22:43:29.278Z,51.90
2018-03-25T22:45:56.903Z,45.50
2018-03-25T22:48:24.466Z,49.43
2018-03-25T22:50:52.112Z,46.37
2018-03-25T22:53:19.731Z,46.63
2018-03-25T22:55:47.299Z,53.10
2018-03-25T22:58:14.938Z,44.43
2018-03-25T23:00:42.566Z,39.63
2018-03-25T23:03:10.137Z,48.27
2018-03-25T23:05:37.702Z,48.50
2018-03-25T23:08:05.335Z,38.57
2018-03-25T23:10:32.973Z,33.87
2018-03-25T23:13:00.643Z,33.17
2018-03-25T23:15:28.210Z,30.83
2018-03-25T23:17:55.771Z,38.83
2018-03-25T23:20:23.347Z,39.30
2018-03-25T23:22:50.924Z,41.13
2018-03-25T23:25:18.558Z,46.80
2018-03-25T23:27:46.183Z,47.57
2018-03-25T23:30:13.810Z,47.83
2018-03-25T23:32:41.386Z,42.43
2018-03-25T23:35:09.762Z,51.30
2018-03-25T23:37:37.334Z,47.13
2018-03-25T23:40:04.897Z,54.03
2018-03-25T23:42:32.467Z,48.53
2018-03-25T23:45:00.088Z,47.40
2018-03-25T23:47:27.646Z,57.53
2018-03-25T23:49:55.273Z,61.97
2018-03-25T23:52:22.902Z,71.57
2018-03-25T23:54:50.467Z,73.07
2018-03-25T23:57:18.033Z,83.00
2018-03-25T23:59:45.603Z,91.50
